Terminal Aerodrome Forecast
Issued by NWS Portland, OR

Home | Current Version | Previous Version | Text Only | Print | Product List | Glossary On
Versions: 1 2 3 4 5 6 7 8 9 10 11 12 13 14 15 16 17 18 19 20 21 22 23 24 25 26 27 28 29 30 31 32 33 34 35 36 37 38 39 40 41 42 43 44 45 46 47 48 49 50
000
FTUS46 KPQR 261351 AAA
TAFTTD
TAF AMD
KTTD 261351Z 2614/2712 20004KT P6SM OVC050
     FM261400 19003KT 6SM BR FEW008 SCT012 OVC050
      TEMPO 2616/2618 3SM BR SCT008 BKN012 BKN050
     FM261800 19005KT P6SM FEW010 SCT050
     FM262000 17007KT P6SM SCT080 BKN150
     FM271000 10012KT P6SM -RA BKN040 OVC080=

USA.gov is the U.S. government's official web portal to all federal, state and local government web resources and services.